sensor_id;sensor_type;location;lat;lon;timestamp;P1;durP1;ratioP1;P2;durP2;ratioP2
50547;SDS011;38013;48.810;8.818;2022-09-03T00:02:37;8.27;;;1.20;;
50547;SDS011;38013;48.810;8.818;2022-09-03T00:13:30;3.08;;;1.20;;
50547;SDS011;38013;48.810;8.818;2022-09-03T00:16:02;3.08;;;1.60;;
50547;SDS011;38013;48.810;8.818;2022-09-03T00:18:34;2.75;;;1.10;;
50547;SDS011;38013;48.810;8.818;2022-09-03T00:21:10;6.50;;;1.55;;
50547;SDS011;38013;48.810;8.818;2022-09-03T00:23:41;2.22;;;1.20;;
50547;SDS011;38013;48.810;8.818;2022-09-03T00:28:42;3.78;;;1.25;;
50547;SDS011;38013;48.810;8.818;2022-09-03T00:31:17;3.25;;;1.35;;
50547;SDS011;38013;48.810;8.818;2022-09-03T00:34:05;3.08;;;1.30;;
50547;SDS011;38013;48.810;8.818;2022-09-03T00:36:47;3.25;;;1.40;;
50547;SDS011;38013;48.810;8.818;2022-09-03T00:39:17;3.42;;;1.48;;
50547;SDS011;38013;48.810;8.818;2022-09-03T00:59:40;3.70;;;1.25;;
50547;SDS011;38013;48.810;8.818;2022-09-03T01:05:51;3.28;;;1.40;;
50547;SDS011;38013;48.810;8.818;2022-09-03T01:08:27;4.60;;;1.40;;
50547;SDS011;38013;48.810;8.818;2022-09-03T01:11:35;4.88;;;1.40;;
50547;SDS011;38013;48.810;8.818;2022-09-03T01:14:30;2.42;;;1.25;;
50547;SDS011;38013;48.810;8.818;2022-09-03T01:30:05;3.70;;;1.30;;
50547;SDS011;38013;48.810;8.818;2022-09-03T01:35:52;3.88;;;1.83;;
50547;SDS011;38013;48.810;8.818;2022-09-03T01:41:29;6.72;;;1.55;;
50547;SDS011;38013;48.810;8.818;2022-09-03T01:44:40;2.83;;;1.40;;
50547;SDS011;38013;48.810;8.818;2022-09-03T01:48:00;3.13;;;1.52;;
50547;SDS011;38013;48.810;8.818;2022-09-03T01:50:43;5.85;;;1.30;;
50547;SDS011;38013;48.810;8.818;2022-09-03T01:53:38;5.60;;;1.65;;
50547;SDS011;38013;48.810;8.818;2022-09-03T02:00:04;1.97;;;1.20;;
50547;SDS011;38013;48.810;8.818;2022-09-03T02:02:37;7.07;;;1.65;;
50547;SDS011;38013;48.810;8.818;2022-09-03T02:10:26;7.10;;;1.92;;
50547;SDS011;38013;48.810;8.818;2022-09-03T02:12:59;2.90;;;1.50;;
50547;SDS011;38013;48.810;8.818;2022-09-03T02:15:36;6.72;;;1.70;;
50547;SDS011;38013;48.810;8.818;2022-09-03T02:18:06;4.30;;;1.50;;
50547;SDS011;38013;48.810;8.818;2022-09-03T02:20:39;6.70;;;1.38;;
50547;SDS011;38013;48.810;8.818;2022-09-03T02:23:06;3.05;;;1.33;;
50547;SDS011;38013;48.810;8.818;2022-09-03T02:25:34;3.55;;;1.42;;
50547;SDS011;38013;48.810;8.818;2022-09-03T02:28:04;4.00;;;1.48;;
50547;SDS011;38013;48.810;8.818;2022-09-03T02:30:31;4.05;;;1.30;;
50547;SDS011;38013;48.810;8.818;2022-09-03T02:32:58;3.65;;;1.30;;
50547;SDS011;38013;48.810;8.818;2022-09-03T02:35:24;5.30;;;1.50;;
50547;SDS011;38013;48.810;8.818;2022-09-03T02:37:50;4.55;;;1.67;;
50547;SDS011;38013;48.810;8.818;2022-09-03T02:40:15;3.60;;;1.73;;
50547;SDS011;38013;48.810;8.818;2022-09-03T02:42:41;2.67;;;1.50;;
50547;SDS011;38013;48.810;8.818;2022-09-03T02:45:15;6.22;;;1.67;;
50547;SDS011;38013;48.810;8.818;2022-09-03T02:47:51;3.60;;;1.67;;
50547;SDS011;38013;48.810;8.818;2022-09-03T02:50:24;3.00;;;1.60;;
50547;SDS011;38013;48.810;8.818;2022-09-03T02:52:50;6.82;;;1.75;;
50547;SDS011;38013;48.810;8.818;2022-09-03T02:55:16;4.90;;;1.45;;
50547;SDS011;38013;48.810;8.818;2022-09-03T02:57:43;3.55;;;1.40;;
50547;SDS011;38013;48.810;8.818;2022-09-03T03:00:10;1.90;;;1.20;;
50547;SDS011;38013;48.810;8.818;2022-09-03T03:02:38;4.18;;;1.70;;
50547;SDS011;38013;48.810;8.818;2022-09-03T03:05:04;3.67;;;1.60;;
50547;SDS011;38013;48.810;8.818;2022-09-03T03:07:34;7.65;;;1.80;;
50547;SDS011;38013;48.810;8.818;2022-09-03T03:10:03;3.25;;;1.38;;
50547;SDS011;38013;48.810;8.818;2022-09-03T03:12:29;2.40;;;1.38;;
50547;SDS011;38013;48.810;8.818;2022-09-03T03:14:55;5.50;;;1.38;;
50547;SDS011;38013;48.810;8.818;2022-09-03T03:17:21;4.40;;;1.42;;
50547;SDS011;38013;48.810;8.818;2022-09-03T03:19:47;3.30;;;1.48;;
50547;SDS011;38013;48.810;8.818;2022-09-03T03:22:13;3.58;;;1.52;;
50547;SDS011;38013;48.810;8.818;2022-09-03T03:24:38;3.67;;;1.52;;
50547;SDS011;38013;48.810;8.818;2022-09-03T03:27:04;4.45;;;1.77;;
50547;SDS011;38013;48.810;8.818;2022-09-03T03:29:32;5.10;;;1.52;;
50547;SDS011;38013;48.810;8.818;2022-09-03T03:31:58;5.05;;;1.42;;
50547;SDS011;38013;48.810;8.818;2022-09-03T03:34:23;3.78;;;1.75;;
50547;SDS011;38013;48.810;8.818;2022-09-03T03:36:49;3.65;;;1.58;;
50547;SDS011;38013;48.810;8.818;2022-09-03T03:39:15;2.80;;;1.40;;
50547;SDS011;38013;48.810;8.818;2022-09-03T03:41:41;4.88;;;1.45;;
50547;SDS011;38013;48.810;8.818;2022-09-03T03:44:06;3.35;;;1.50;;
50547;SDS011;38013;48.810;8.818;2022-09-03T03:46:36;2.55;;;1.25;;
50547;SDS011;38013;48.810;8.818;2022-09-03T03:49:05;2.85;;;1.42;;
50547;SDS011;38013;48.810;8.818;2022-09-03T03:51:32;4.25;;;1.50;;
50547;SDS011;38013;48.810;8.818;2022-09-03T03:53:59;2.72;;;1.50;;
50547;SDS011;38013;48.810;8.818;2022-09-03T03:56:25;5.30;;;1.70;;
50547;SDS011;38013;48.810;8.818;2022-09-03T03:58:52;3.92;;;1.60;;
50547;SDS011;38013;48.810;8.818;2022-09-03T04:01:19;3.22;;;1.40;;
50547;SDS011;38013;48.810;8.818;2022-09-03T04:03:50;4.18;;;1.30;;
50547;SDS011;38013;48.810;8.818;2022-09-03T04:06:17;3.10;;;1.88;;
50547;SDS011;38013;48.810;8.818;2022-09-03T04:08:45;4.00;;;1.60;;
50547;SDS011;38013;48.810;8.818;2022-09-03T04:11:14;3.20;;;1.73;;
50547;SDS011;38013;48.810;8.818;2022-09-03T04:13:43;6.65;;;1.48;;
50547;SDS011;38013;48.810;8.818;2022-09-03T04:16:14;5.80;;;1.80;;
50547;SDS011;38013;48.810;8.818;2022-09-03T04:18:43;3.25;;;1.60;;
50547;SDS011;38013;48.810;8.818;2022-09-03T04:21:11;3.17;;;1.60;;
50547;SDS011;38013;48.810;8.818;2022-09-03T04:23:39;2.63;;;1.42;;
50547;SDS011;38013;48.810;8.818;2022-09-03T04:26:08;4.33;;;1.77;;
50547;SDS011;38013;48.810;8.818;2022-09-03T04:28:37;4.20;;;1.60;;
50547;SDS011;38013;48.810;8.818;2022-09-03T04:31:03;3.78;;;1.80;;
50547;SDS011;38013;48.810;8.818;2022-09-03T04:33:32;4.53;;;1.80;;
50547;SDS011;38013;48.810;8.818;2022-09-03T04:36:03;3.67;;;1.75;;
50547;SDS011;38013;48.810;8.818;2022-09-03T04:38:32;5.05;;;1.58;;
50547;SDS011;38013;48.810;8.818;2022-09-03T04:41:00;3.08;;;1.55;;
50547;SDS011;38013;48.810;8.818;2022-09-03T04:43:26;3.67;;;1.70;;
50547;SDS011;38013;48.810;8.818;2022-09-03T04:45:59;4.88;;;1.85;;
50547;SDS011;38013;48.810;8.818;2022-09-03T04:48:28;2.90;;;1.60;;
50547;SDS011;38013;48.810;8.818;2022-09-03T04:51:00;4.18;;;1.90;;
50547;SDS011;38013;48.810;8.818;2022-09-03T04:53:30;3.53;;;1.88;;
50547;SDS011;38013;48.810;8.818;2022-09-03T04:56:02;7.97;;;1.90;;
50547;SDS011;38013;48.810;8.818;2022-09-03T04:58:35;3.63;;;1.73;;
50547;SDS011;38013;48.810;8.818;2022-09-03T05:01:06;2.60;;;1.70;;
50547;SDS011;38013;48.810;8.818;2022-09-03T05:03:33;3.60;;;2.22;;
50547;SDS011;38013;48.810;8.818;2022-09-03T05:06:01;4.57;;;1.90;;
50547;SDS011;38013;48.810;8.818;2022-09-03T05:08:27;3.45;;;1.92;;
50547;SDS011;38013;48.810;8.818;2022-09-03T05:10:57;3.38;;;2.10;;
50547;SDS011;38013;48.810;8.818;2022-09-03T05:13:24;3.22;;;1.73;;
50547;SDS011;38013;48.810;8.818;2022-09-03T05:15:50;5.43;;;1.95;;
50547;SDS011;38013;48.810;8.818;2022-09-03T05:18:16;4.55;;;2.20;;
50547;SDS011;38013;48.810;8.818;2022-09-03T05:20:42;4.22;;;2.20;;
50547;SDS011;38013;48.810;8.818;2022-09-03T05:23:07;3.53;;;1.90;;
50547;SDS011;38013;48.810;8.818;2022-09-03T05:25:33;3.05;;;1.75;;
50547;SDS011;38013;48.810;8.818;2022-09-03T05:28:02;4.30;;;2.25;;
50547;SDS011;38013;48.810;8.818;2022-09-03T05:30:29;3.75;;;2.10;;
50547;SDS011;38013;48.810;8.818;2022-09-03T05:32:55;3.42;;;2.20;;
50547;SDS011;38013;48.810;8.818;2022-09-03T05:35:21;2.95;;;2.05;;
50547;SDS011;38013;48.810;8.818;2022-09-03T05:37:46;4.07;;;2.25;;
50547;SDS011;38013;48.810;8.818;2022-09-03T05:40:12;3.95;;;2.20;;
50547;SDS011;38013;48.810;8.818;2022-09-03T05:42:38;3.60;;;2.33;;
50547;SDS011;38013;48.810;8.818;2022-09-03T05:45:07;7.30;;;2.17;;
50547;SDS011;38013;48.810;8.818;2022-09-03T05:47:35;4.82;;;2.10;;
50547;SDS011;38013;48.810;8.818;2022-09-03T05:50:03;5.55;;;2.08;;
50547;SDS011;38013;48.810;8.818;2022-09-03T05:52:34;3.63;;;1.75;;
50547;SDS011;38013;48.810;8.818;2022-09-03T05:55:01;3.50;;;1.80;;
50547;SDS011;38013;48.810;8.818;2022-09-03T05:57:28;2.78;;;1.40;;
50547;SDS011;38013;48.810;8.818;2022-09-03T05:59:54;4.15;;;1.85;;
50547;SDS011;38013;48.810;8.818;2022-09-03T06:02:20;3.28;;;1.55;;
50547;SDS011;38013;48.810;8.818;2022-09-03T06:04:46;4.13;;;1.70;;
50547;SDS011;38013;48.810;8.818;2022-09-03T06:07:13;5.78;;;2.10;;
50547;SDS011;38013;48.810;8.818;2022-09-03T06:09:39;2.45;;;1.50;;
50547;SDS011;38013;48.810;8.818;2022-09-03T06:12:05;5.05;;;1.77;;
50547;SDS011;38013;48.810;8.818;2022-09-03T06:14:32;3.45;;;2.00;;
50547;SDS011;38013;48.810;8.818;2022-09-03T06:16:57;6.00;;;2.05;;
50547;SDS011;38013;48.810;8.818;2022-09-03T06:19:23;4.10;;;1.90;;
50547;SDS011;38013;48.810;8.818;2022-09-03T06:21:49;3.65;;;1.85;;
50547;SDS011;38013;48.810;8.818;2022-09-03T06:24:16;4.10;;;1.85;;
50547;SDS011;38013;48.810;8.818;2022-09-03T06:26:48;3.53;;;2.10;;
50547;SDS011;38013;48.810;8.818;2022-09-03T06:29:15;3.17;;;2.05;;
50547;SDS011;38013;48.810;8.818;2022-09-03T06:31:44;4.57;;;2.20;;
50547;SDS011;38013;48.810;8.818;2022-09-03T06:34:12;3.97;;;1.90;;
50547;SDS011;38013;48.810;8.818;2022-09-03T06:36:38;4.22;;;2.25;;
50547;SDS011;38013;48.810;8.818;2022-09-03T06:39:05;4.18;;;2.03;;
50547;SDS011;38013;48.810;8.818;2022-09-03T06:41:31;7.00;;;2.00;;
50547;SDS011;38013;48.810;8.818;2022-09-03T06:44:03;4.93;;;2.17;;
50547;SDS011;38013;48.810;8.818;2022-09-03T06:46:31;4.65;;;2.15;;
50547;SDS011;38013;48.810;8.818;2022-09-03T06:48:59;3.72;;;2.15;;
50547;SDS011;38013;48.810;8.818;2022-09-03T06:51:26;3.53;;;1.92;;
50547;SDS011;38013;48.810;8.818;2022-09-03T06:53:58;4.55;;;2.00;;
50547;SDS011;38013;48.810;8.818;2022-09-03T06:56:31;3.47;;;1.95;;
50547;SDS011;38013;48.810;8.818;2022-09-03T06:59:03;6.10;;;1.80;;
50547;SDS011;38013;48.810;8.818;2022-09-03T07:01:37;6.45;;;2.05;;
50547;SDS011;38013;48.810;8.818;2022-09-03T07:04:05;4.72;;;2.20;;
50547;SDS011;38013;48.810;8.818;2022-09-03T07:06:33;4.13;;;2.10;;
50547;SDS011;38013;48.810;8.818;2022-09-03T07:09:01;4.63;;;2.40;;
50547;SDS011;38013;48.810;8.818;2022-09-03T07:11:28;4.05;;;2.20;;
50547;SDS011;38013;48.810;8.818;2022-09-03T07:13:55;3.95;;;2.10;;
50547;SDS011;38013;48.810;8.818;2022-09-03T07:16:26;2.95;;;1.88;;
50547;SDS011;38013;48.810;8.818;2022-09-03T07:18:54;6.40;;;2.00;;
50547;SDS011;38013;48.810;8.818;2022-09-03T07:21:22;3.17;;;1.90;;
50547;SDS011;38013;48.810;8.818;2022-09-03T07:23:50;7.10;;;2.40;;
50547;SDS011;38013;48.810;8.818;2022-09-03T07:26:21;3.60;;;2.10;;
50547;SDS011;38013;48.810;8.818;2022-09-03T07:28:48;3.88;;;2.30;;
50547;SDS011;38013;48.810;8.818;2022-09-03T07:31:16;3.30;;;1.90;;
50547;SDS011;38013;48.810;8.818;2022-09-03T07:33:49;4.45;;;2.13;;
50547;SDS011;38013;48.810;8.818;2022-09-03T07:36:30;3.08;;;1.92;;
50547;SDS011;38013;48.810;8.818;2022-09-03T07:39:06;4.13;;;1.90;;
50547;SDS011;38013;48.810;8.818;2022-09-03T07:41:33;4.50;;;1.90;;
50547;SDS011;38013;48.810;8.818;2022-09-03T07:43:59;6.53;;;1.90;;
50547;SDS011;38013;48.810;8.818;2022-09-03T07:46:30;3.22;;;1.90;;
50547;SDS011;38013;48.810;8.818;2022-09-03T07:48:58;3.65;;;1.95;;
50547;SDS011;38013;48.810;8.818;2022-09-03T07:51:29;3.25;;;1.75;;
50547;SDS011;38013;48.810;8.818;2022-09-03T07:53:58;4.18;;;1.98;;
50547;SDS011;38013;48.810;8.818;2022-09-03T07:56:29;3.15;;;1.88;;
50547;SDS011;38013;48.810;8.818;2022-09-03T07:58:59;4.75;;;2.30;;
50547;SDS011;38013;48.810;8.818;2022-09-03T08:01:26;3.58;;;2.08;;
50547;SDS011;38013;48.810;8.818;2022-09-03T08:03:55;4.53;;;1.90;;
50547;SDS011;38013;48.810;8.818;2022-09-03T08:06:21;3.80;;;2.00;;
50547;SDS011;38013;48.810;8.818;2022-09-03T08:09:00;5.13;;;2.00;;
50547;SDS011;38013;48.810;8.818;2022-09-03T08:11:30;3.78;;;1.90;;
50547;SDS011;38013;48.810;8.818;2022-09-03T08:14:08;3.85;;;2.00;;
50547;SDS011;38013;48.810;8.818;2022-09-03T08:16:43;6.53;;;2.08;;
50547;SDS011;38013;48.810;8.818;2022-09-03T08:19:14;3.80;;;2.08;;
50547;SDS011;38013;48.810;8.818;2022-09-03T08:21:42;5.57;;;1.70;;
50547;SDS011;38013;48.810;8.818;2022-09-03T08:24:09;4.47;;;2.08;;
50547;SDS011;38013;48.810;8.818;2022-09-03T08:26:38;4.82;;;1.90;;
50547;SDS011;38013;48.810;8.818;2022-09-03T08:29:06;3.15;;;1.83;;
50547;SDS011;38013;48.810;8.818;2022-09-03T08:31:33;4.25;;;2.10;;
50547;SDS011;38013;48.810;8.818;2022-09-03T08:34:00;4.43;;;1.90;;
50547;SDS011;38013;48.810;8.818;2022-09-03T08:36:30;6.00;;;2.38;;
50547;SDS011;38013;48.810;8.818;2022-09-03T08:39:00;3.60;;;1.77;;
50547;SDS011;38013;48.810;8.818;2022-09-03T08:44:32;3.83;;;2.30;;
50547;SDS011;38013;48.810;8.818;2022-09-03T08:47:16;5.43;;;1.85;;
50547;SDS011;38013;48.810;8.818;2022-09-03T08:58:21;5.47;;;1.88;;
50547;SDS011;38013;48.810;8.818;2022-09-03T09:00:58;4.03;;;2.00;;
50547;SDS011;38013;48.810;8.818;2022-09-03T09:06:28;3.60;;;1.92;;
50547;SDS011;38013;48.810;8.818;2022-09-03T09:09:02;3.13;;;1.90;;
50547;SDS011;38013;48.810;8.818;2022-09-03T09:18:02;4.85;;;2.00;;
50547;SDS011;38013;48.810;8.818;2022-09-03T09:20:58;2.92;;;1.73;;
50547;SDS011;38013;48.810;8.818;2022-09-03T09:23:40;3.40;;;2.00;;
50547;SDS011;38013;48.810;8.818;2022-09-03T09:26:14;3.55;;;2.00;;
50547;SDS011;38013;48.810;8.818;2022-09-03T09:28:46;4.25;;;2.17;;
50547;SDS011;38013;48.810;8.818;2022-09-03T09:31:22;4.50;;;1.70;;
50547;SDS011;38013;48.810;8.818;2022-09-03T09:33:48;3.58;;;1.80;;
50547;SDS011;38013;48.810;8.818;2022-09-03T09:36:16;3.92;;;2.10;;
50547;SDS011;38013;48.810;8.818;2022-09-03T09:38:44;7.45;;;2.10;;
50547;SDS011;38013;48.810;8.818;2022-09-03T09:41:15;5.95;;;2.10;;
50547;SDS011;38013;48.810;8.818;2022-09-03T09:43:47;3.55;;;2.00;;
50547;SDS011;38013;48.810;8.818;2022-09-03T09:46:36;3.65;;;2.10;;
50547;SDS011;38013;48.810;8.818;2022-09-03T09:52:01;5.40;;;1.95;;
50547;SDS011;38013;48.810;8.818;2022-09-03T09:54:39;4.03;;;2.35;;
50547;SDS011;38013;48.810;8.818;2022-09-03T09:57:11;4.22;;;2.13;;
50547;SDS011;38013;48.810;8.818;2022-09-03T09:59:46;5.63;;;1.85;;
50547;SDS011;38013;48.810;8.818;2022-09-03T10:02:23;3.78;;;2.15;;
50547;SDS011;38013;48.810;8.818;2022-09-03T10:04:52;4.85;;;1.85;;
50547;SDS011;38013;48.810;8.818;2022-09-03T10:10:00;3.60;;;2.10;;
50547;SDS011;38013;48.810;8.818;2022-09-03T10:12:32;5.32;;;2.60;;
50547;SDS011;38013;48.810;8.818;2022-09-03T10:26:41;3.08;;;1.90;;
50547;SDS011;38013;48.810;8.818;2022-09-03T10:29:10;3.50;;;1.93;;
50547;SDS011;38013;48.810;8.818;2022-09-03T10:34:37;3.47;;;1.95;;
50547;SDS011;38013;48.810;8.818;2022-09-03T10:40:35;3.35;;;2.15;;
50547;SDS011;38013;48.810;8.818;2022-09-03T10:54:52;6.00;;;2.05;;
50547;SDS011;38013;48.810;8.818;2022-09-03T11:00:38;2.92;;;1.70;;
50547;SDS011;38013;48.810;8.818;2022-09-03T11:03:44;3.13;;;1.80;;
50547;SDS011;38013;48.810;8.818;2022-09-03T11:14:06;2.83;;;1.40;;
50547;SDS011;38013;48.810;8.818;2022-09-03T11:16:37;3.45;;;1.83;;
50547;SDS011;38013;48.810;8.818;2022-09-03T11:19:10;3.67;;;1.60;;
50547;SDS011;38013;48.810;8.818;2022-09-03T11:21:41;6.93;;;1.80;;
50547;SDS011;38013;48.810;8.818;2022-09-03T11:26:40;3.10;;;1.77;;
50547;SDS011;38013;48.810;8.818;2022-09-03T11:29:11;5.13;;;1.63;;
50547;SDS011;38013;48.810;8.818;2022-09-03T11:31:51;5.22;;;1.80;;
50547;SDS011;38013;48.810;8.818;2022-09-03T11:36:51;4.68;;;1.63;;
50547;SDS011;38013;48.810;8.818;2022-09-03T11:39:43;3.38;;;1.60;;
50547;SDS011;38013;48.810;8.818;2022-09-03T11:42:28;2.08;;;1.40;;
50547;SDS011;38013;48.810;8.818;2022-09-03T11:45:19;3.13;;;1.50;;
50547;SDS011;38013;48.810;8.818;2022-09-03T11:47:51;3.38;;;1.60;;
50547;SDS011;38013;48.810;8.818;2022-09-03T11:53:22;4.90;;;1.63;;
50547;SDS011;38013;48.810;8.818;2022-09-03T11:56:08;2.60;;;1.50;;
50547;SDS011;38013;48.810;8.818;2022-09-03T11:58:42;3.88;;;1.60;;
50547;SDS011;38013;48.810;8.818;2022-09-03T12:01:12;3.17;;;1.70;;
50547;SDS011;38013;48.810;8.818;2022-09-03T12:09:10;3.22;;;1.90;;
50547;SDS011;38013;48.810;8.818;2022-09-03T12:23:29;2.95;;;1.75;;
50547;SDS011;38013;48.810;8.818;2022-09-03T12:26:03;7.03;;;2.30;;
50547;SDS011;38013;48.810;8.818;2022-09-03T12:28:34;4.97;;;1.83;;
50547;SDS011;38013;48.810;8.818;2022-09-03T12:34:30;2.25;;;1.30;;
50547;SDS011;38013;48.810;8.818;2022-09-03T12:36:49;1.98;;;0.90;;
50547;SDS011;38013;48.810;8.818;2022-09-03T12:39:19;7.22;;;1.10;;
50547;SDS011;38013;48.810;8.818;2022-09-03T12:47:36;3.88;;;1.42;;
50547;SDS011;38013;48.810;8.818;2022-09-03T12:49:51;2.67;;;1.10;;
50547;SDS011;38013;48.810;8.818;2022-09-03T12:55:00;3.17;;;1.20;;
50547;SDS011;38013;48.810;8.818;2022-09-03T13:00:41;4.07;;;0.93;;
50547;SDS011;38013;48.810;8.818;2022-09-03T13:03:57;2.00;;;1.00;;
50547;SDS011;38013;48.810;8.818;2022-09-03T13:06:27;8.30;;;1.60;;
50547;SDS011;38013;48.810;8.818;2022-09-03T13:09:08;7.80;;;1.75;;
50547;SDS011;38013;48.810;8.818;2022-09-03T13:11:34;10.85;;;1.65;;
50547;SDS011;38013;48.810;8.818;2022-09-03T13:14:02;4.53;;;1.30;;
50547;SDS011;38013;48.810;8.818;2022-09-03T13:22:30;2.97;;;1.10;;
50547;SDS011;38013;48.810;8.818;2022-09-03T13:28:35;4.47;;;1.20;;
50547;SDS011;38013;48.810;8.818;2022-09-03T13:34:50;3.13;;;1.10;;
50547;SDS011;38013;48.810;8.818;2022-09-03T13:37:42;4.05;;;1.02;;
50547;SDS011;38013;48.810;8.818;2022-09-03T13:40:15;3.35;;;1.10;;
50547;SDS011;38013;48.810;8.818;2022-09-03T13:43:04;3.08;;;1.05;;
50547;SDS011;38013;48.810;8.818;2022-09-03T13:49:19;3.15;;;1.00;;
50547;SDS011;38013;48.810;8.818;2022-09-03T13:52:20;2.50;;;1.05;;
50547;SDS011;38013;48.810;8.818;2022-09-03T14:00:53;3.28;;;1.30;;
50547;SDS011;38013;48.810;8.818;2022-09-03T14:03:59;4.05;;;1.40;;
50547;SDS011;38013;48.810;8.818;2022-09-03T14:06:39;4.22;;;1.10;;
50547;SDS011;38013;48.810;8.818;2022-09-03T14:17:58;3.15;;;1.10;;
50547;SDS011;38013;48.810;8.818;2022-09-03T14:20:54;4.97;;;1.30;;
50547;SDS011;38013;48.810;8.818;2022-09-03T14:26:32;6.25;;;1.45;;
50547;SDS011;38013;48.810;8.818;2022-09-03T14:31:40;9.40;;;1.60;;
50547;SDS011;38013;48.810;8.818;2022-09-03T14:34:34;20.30;;;2.10;;
50547;SDS011;38013;48.810;8.818;2022-09-03T14:40:15;4.78;;;1.67;;
50547;SDS011;38013;48.810;8.818;2022-09-03T14:48:34;2.75;;;1.35;;
50547;SDS011;38013;48.810;8.818;2022-09-03T14:57:35;3.13;;;1.20;;
50547;SDS011;38013;48.810;8.818;2022-09-03T15:09:26;3.75;;;1.23;;
50547;SDS011;38013;48.810;8.818;2022-09-03T15:24:21;3.47;;;1.10;;
50547;SDS011;38013;48.810;8.818;2022-09-03T15:30:08;4.82;;;1.60;;
50547;SDS011;38013;48.810;8.818;2022-09-03T15:32:40;3.15;;;1.20;;
50547;SDS011;38013;48.810;8.818;2022-09-03T15:41:33;3.28;;;1.30;;
50547;SDS011;38013;48.810;8.818;2022-09-03T15:44:19;2.20;;;1.13;;
50547;SDS011;38013;48.810;8.818;2022-09-03T15:52:46;4.07;;;1.13;;
50547;SDS011;38013;48.810;8.818;2022-09-03T15:55:33;3.28;;;1.10;;
50547;SDS011;38013;48.810;8.818;2022-09-03T15:58:05;3.67;;;1.15;;
50547;SDS011;38013;48.810;8.818;2022-09-03T16:00:56;2.83;;;1.23;;
50547;SDS011;38013;48.810;8.818;2022-09-03T16:03:48;3.55;;;1.10;;
50547;SDS011;38013;48.810;8.818;2022-09-03T16:15:19;3.83;;;1.33;;
50547;SDS011;38013;48.810;8.818;2022-09-03T16:18:02;3.20;;;1.35;;
50547;SDS011;38013;48.810;8.818;2022-09-03T16:24:03;4.05;;;1.20;;
50547;SDS011;38013;48.810;8.818;2022-09-03T16:26:54;3.83;;;1.20;;
50547;SDS011;38013;48.810;8.818;2022-09-03T16:29:30;4.03;;;1.50;;
50547;SDS011;38013;48.810;8.818;2022-09-03T16:32:16;2.35;;;1.20;;
50547;SDS011;38013;48.810;8.818;2022-09-03T16:40:13;3.75;;;1.40;;
50547;SDS011;38013;48.810;8.818;2022-09-03T16:55:22;5.78;;;1.60;;
50547;SDS011;38013;48.810;8.818;2022-09-03T16:58:13;2.33;;;1.15;;
50547;SDS011;38013;48.810;8.818;2022-09-03T17:04:15;3.80;;;1.23;;
50547;SDS011;38013;48.810;8.818;2022-09-03T17:12:32;2.28;;;1.20;;
50547;SDS011;38013;48.810;8.818;2022-09-03T17:18:37;4.70;;;1.30;;
50547;SDS011;38013;48.810;8.818;2022-09-03T17:21:36;3.03;;;1.45;;
50547;SDS011;38013;48.810;8.818;2022-09-03T17:27:00;2.72;;;1.35;;
50547;SDS011;38013;48.810;8.818;2022-09-03T17:32:31;2.35;;;0.80;;
50547;SDS011;38013;48.810;8.818;2022-09-03T17:35:37;3.28;;;1.00;;
50547;SDS011;38013;48.810;8.818;2022-09-03T17:44:32;2.90;;;0.95;;
50547;SDS011;38013;48.810;8.818;2022-09-03T17:50:22;2.80;;;0.98;;
50547;SDS011;38013;48.810;8.818;2022-09-03T17:52:52;1.67;;;1.08;;
50547;SDS011;38013;48.810;8.818;2022-09-03T17:55:35;4.30;;;1.27;;
50547;SDS011;38013;48.810;8.818;2022-09-03T17:58:10;1.33;;;1.05;;
50547;SDS011;38013;48.810;8.818;2022-09-03T18:03:46;2.05;;;1.08;;
50547;SDS011;38013;48.810;8.818;2022-09-03T18:06:22;4.90;;;1.25;;
50547;SDS011;38013;48.810;8.818;2022-09-03T18:09:19;4.07;;;1.10;;
50547;SDS011;38013;48.810;8.818;2022-09-03T18:12:05;1.80;;;1.25;;
50547;SDS011;38013;48.810;8.818;2022-09-03T18:14:41;6.28;;;1.38;;
50547;SDS011;38013;48.810;8.818;2022-09-03T18:17:24;3.75;;;1.17;;
50547;SDS011;38013;48.810;8.818;2022-09-03T18:20:07;3.45;;;1.10;;
50547;SDS011;38013;48.810;8.818;2022-09-03T18:26:05;2.78;;;1.20;;
50547;SDS011;38013;48.810;8.818;2022-09-03T18:31:50;5.38;;;1.50;;
50547;SDS011;38013;48.810;8.818;2022-09-03T18:34:34;5.28;;;1.60;;
50547;SDS011;38013;48.810;8.818;2022-09-03T18:37:21;4.05;;;1.40;;
50547;SDS011;38013;48.810;8.818;2022-09-03T18:40:08;4.15;;;1.60;;
50547;SDS011;38013;48.810;8.818;2022-09-03T18:46:25;5.15;;;1.50;;
50547;SDS011;38013;48.810;8.818;2022-09-03T18:49:29;2.67;;;1.58;;
50547;SDS011;38013;48.810;8.818;2022-09-03T18:52:37;3.95;;;1.80;;
50547;SDS011;38013;48.810;8.818;2022-09-03T19:04:20;3.53;;;1.67;;
50547;SDS011;38013;48.810;8.818;2022-09-03T19:14:21;3.97;;;1.55;;
50547;SDS011;38013;48.810;8.818;2022-09-03T19:17:19;3.05;;;1.60;;
50547;SDS011;38013;48.810;8.818;2022-09-03T19:20:17;3.97;;;2.15;;
50547;SDS011;38013;48.810;8.818;2022-09-03T19:23:11;3.97;;;1.92;;
50547;SDS011;38013;48.810;8.818;2022-09-03T19:25:58;4.75;;;1.50;;
50547;SDS011;38013;48.810;8.818;2022-09-03T19:29:07;4.95;;;1.80;;
50547;SDS011;38013;48.810;8.818;2022-09-03T19:32:40;4.03;;;1.85;;
50547;SDS011;38013;48.810;8.818;2022-09-03T19:36:00;3.83;;;1.73;;
50547;SDS011;38013;48.810;8.818;2022-09-03T19:42:14;2.85;;;1.60;;
50547;SDS011;38013;48.810;8.818;2022-09-03T19:45:21;3.22;;;1.73;;
50547;SDS011;38013;48.810;8.818;2022-09-03T19:48:57;4.75;;;1.67;;
50547;SDS011;38013;48.810;8.818;2022-09-03T19:52:02;3.80;;;1.55;;
50547;SDS011;38013;48.810;8.818;2022-09-03T19:55:02;5.85;;;1.55;;
50547;SDS011;38013;48.810;8.818;2022-09-03T19:57:48;2.50;;;1.52;;
50547;SDS011;38013;48.810;8.818;2022-09-03T20:00:38;6.47;;;1.73;;
50547;SDS011;38013;48.810;8.818;2022-09-03T20:03:24;4.20;;;1.85;;
50547;SDS011;38013;48.810;8.818;2022-09-03T20:06:09;3.22;;;1.77;;
50547;SDS011;38013;48.810;8.818;2022-09-03T20:08:57;4.60;;;1.75;;
50547;SDS011;38013;48.810;8.818;2022-09-03T20:11:50;4.90;;;1.80;;
50547;SDS011;38013;48.810;8.818;2022-09-03T20:14:18;6.10;;;2.08;;
50547;SDS011;38013;48.810;8.818;2022-09-03T20:20:31;14.45;;;2.05;;
50547;SDS011;38013;48.810;8.818;2022-09-03T20:23:11;6.28;;;1.90;;
50547;SDS011;38013;48.810;8.818;2022-09-03T20:34:59;3.60;;;2.03;;
50547;SDS011;38013;48.810;8.818;2022-09-03T20:46:53;4.95;;;1.88;;
50547;SDS011;38013;48.810;8.818;2022-09-03T20:49:34;4.03;;;2.25;;
50547;SDS011;38013;48.810;8.818;2022-09-03T20:56:25;4.65;;;1.42;;
50547;SDS011;38013;48.810;8.818;2022-09-03T21:04:59;3.83;;;1.85;;
50547;SDS011;38013;48.810;8.818;2022-09-03T21:13:53;5.82;;;2.10;;
50547;SDS011;38013;48.810;8.818;2022-09-03T21:19:35;4.50;;;2.00;;
50547;SDS011;38013;48.810;8.818;2022-09-03T21:22:41;2.55;;;1.52;;
50547;SDS011;38013;48.810;8.818;2022-09-03T21:25:31;5.05;;;1.67;;
50547;SDS011;38013;48.810;8.818;2022-09-03T21:28:32;6.65;;;2.00;;
50547;SDS011;38013;48.810;8.818;2022-09-03T21:31:30;6.57;;;2.25;;
50547;SDS011;38013;48.810;8.818;2022-09-03T21:34:03;7.97;;;2.13;;
50547;SDS011;38013;48.810;8.818;2022-09-03T21:36:38;8.57;;;2.00;;
50547;SDS011;38013;48.810;8.818;2022-09-03T21:39:08;5.30;;;2.05;;
50547;SDS011;38013;48.810;8.818;2022-09-03T21:41:43;5.53;;;2.67;;
50547;SDS011;38013;48.810;8.818;2022-09-03T21:44:40;3.47;;;1.67;;
50547;SDS011;38013;48.810;8.818;2022-09-03T21:47:18;4.13;;;2.25;;
50547;SDS011;38013;48.810;8.818;2022-09-03T21:49:53;4.00;;;2.05;;
50547;SDS011;38013;48.810;8.818;2022-09-03T21:52:51;6.07;;;2.30;;
50547;SDS011;38013;48.810;8.818;2022-09-03T21:58:15;5.65;;;2.50;;
50547;SDS011;38013;48.810;8.818;2022-09-03T22:01:05;4.63;;;2.13;;
50547;SDS011;38013;48.810;8.818;2022-09-03T22:03:40;5.80;;;2.33;;
50547;SDS011;38013;48.810;8.818;2022-09-03T22:06:09;4.50;;;2.13;;
50547;SDS011;38013;48.810;8.818;2022-09-03T22:08:46;6.55;;;2.45;;
50547;SDS011;38013;48.810;8.818;2022-09-03T22:11:33;4.00;;;2.10;;